createdAt,value
2017-08-16T00:01:10.925Z,92.30
2017-08-16T00:03:38.519Z,92.40
2017-08-16T00:06:06.114Z,92.70
2017-08-16T00:08:33.675Z,93.00
2017-08-16T00:11:01.282Z,93.10
2017-08-16T00:13:28.844Z,93.20
2017-08-16T00:15:56.408Z,93.40
2017-08-16T00:18:24.006Z,93.60
2017-08-16T00:20:51.564Z,93.60
2017-08-16T00:23:19.171Z,93.70
2017-08-16T00:25:46.734Z,93.90
2017-08-16T00:28:15.033Z,94.00
2017-08-16T00:30:45.888Z,94.00
2017-08-16T00:33:13.715Z,94.20
2017-08-16T00:38:18.621Z,94.00
2017-08-16T00:40:46.234Z,94.00
2017-08-16T00:43:13.791Z,94.00
2017-08-16T00:45:41.355Z,94.00
2017-08-16T00:48:08.965Z,94.00
2017-08-16T00:50:36.571Z,94.10
2017-08-16T00:53:04.133Z,94.40
2017-08-16T00:55:31.701Z,94.30
2017-08-16T00:57:59.294Z,94.20
2017-08-16T01:00:26.897Z,94.20
2017-08-16T01:02:54.476Z,94.00
2017-08-16T01:05:22.067Z,94.00
2017-08-16T01:07:49.615Z,94.10
2017-08-16T01:10:17.207Z,94.30
2017-08-16T01:12:44.786Z,94.50
2017-08-16T01:15:12.348Z,94.40
2017-08-16T01:17:40.909Z,94.50
2017-08-16T01:20:08.771Z,94.50
2017-08-16T01:22:36.358Z,94.40
2017-08-16T01:25:08.354Z,94.50
2017-08-16T01:30:13.680Z,94.50
2017-08-16T01:32:42.047Z,94.60
2017-08-16T01:35:09.610Z,94.60
2017-08-16T01:37:37.948Z,94.40
2017-08-16T01:40:05.530Z,94.60
2017-08-16T01:42:33.094Z,94.70
2017-08-16T01:45:00.716Z,94.60
2017-08-16T01:47:28.280Z,94.60
2017-08-16T01:49:55.843Z,94.90
2017-08-16T01:52:23.438Z,95.00
2017-08-16T01:54:51.029Z,95.00
2017-08-16T01:57:18.616Z,95.20
2017-08-16T01:59:46.215Z,94.50
2017-08-16T02:02:13.806Z,94.10
2017-08-16T02:04:41.370Z,94.40
2017-08-16T02:07:08.962Z,94.60
2017-08-16T02:09:36.532Z,94.60
2017-08-16T02:12:04.124Z,94.60
2017-08-16T02:14:31.681Z,95.00
2017-08-16T02:16:59.279Z,94.70
2017-08-16T02:19:26.837Z,94.80
2017-08-16T02:21:54.435Z,94.80
2017-08-16T02:24:22.038Z,94.80
2017-08-16T02:26:49.601Z,94.70
2017-08-16T02:29:17.928Z,94.80
2017-08-16T02:31:45.551Z,95.10
2017-08-16T02:34:13.145Z,95.10
2017-08-16T02:36:40.737Z,95.10
2017-08-16T02:39:08.302Z,95.20
2017-08-16T02:41:35.909Z,94.80
2017-08-16T02:44:03.471Z,94.10
2017-08-16T02:46:31.040Z,93.90
2017-08-16T02:48:58.634Z,94.10
2017-08-16T02:51:26.190Z,93.80
2017-08-16T02:53:53.801Z,94.30
2017-08-16T02:56:21.359Z,94.60
2017-08-16T02:58:48.967Z,94.80
2017-08-16T03:01:16.532Z,95.00
2017-08-16T03:03:44.139Z,95.10
2017-08-16T03:06:11.702Z,95.00
2017-08-16T03:08:39.295Z,95.10
2017-08-16T03:11:06.858Z,94.60
2017-08-16T03:13:34.456Z,94.80
2017-08-16T03:16:02.012Z,94.70
2017-08-16T03:18:29.746Z,94.80
2017-08-16T03:20:57.318Z,94.80
2017-08-16T03:23:24.890Z,94.80
2017-08-16T03:25:52.475Z,94.80
2017-08-16T03:28:20.802Z,95.00
2017-08-16T03:30:48.396Z,95.20
2017-08-16T03:33:15.987Z,94.40
2017-08-16T03:35:43.581Z,94.60
2017-08-16T03:38:11.144Z,94.70
2017-08-16T03:40:38.757Z,94.70
2017-08-16T03:43:07.096Z,94.10
2017-08-16T03:45:34.703Z,94.10
2017-08-16T03:48:02.289Z,94.40
2017-08-16T03:50:29.879Z,94.60
2017-08-16T03:52:57.467Z,94.20
2017-08-16T03:55:25.794Z,94.50
2017-08-16T03:57:53.409Z,94.40
2017-08-16T04:00:21.797Z,94.30
2017-08-16T04:02:50.164Z,94.30
2017-08-16T04:05:18.536Z,94.20
2017-08-16T04:07:46.113Z,94.20
2017-08-16T04:10:13.692Z,94.50
2017-08-16T04:12:41.299Z,94.50
2017-08-16T04:15:08.883Z,94.60
2017-08-16T04:17:37.226Z,94.60
2017-08-16T04:20:04.833Z,94.60
2017-08-16T04:22:33.190Z,94.80
2017-08-16T04:25:00.795Z,94.80
2017-08-16T04:27:28.373Z,94.70
2017-08-16T04:29:55.965Z,94.60
2017-08-16T04:32:23.551Z,94.40
2017-08-16T04:34:51.172Z,94.30
2017-08-16T04:37:18.789Z,94.20
2017-08-16T04:39:46.351Z,94.30
2017-08-16T04:42:13.919Z,94.40
2017-08-16T04:44:41.563Z,94.60
2017-08-16T04:47:09.134Z,94.30
2017-08-16T04:49:36.738Z,94.40
2017-08-16T04:52:04.331Z,94.40
2017-08-16T04:54:32.711Z,94.40
2017-08-16T04:57:01.067Z,94.40
2017-08-16T04:59:28.669Z,94.40
2017-08-16T05:01:56.241Z,94.30
2017-08-16T05:04:23.825Z,94.50
2017-08-16T05:06:51.403Z,94.30
2017-08-16T05:09:19.010Z,94.40
2017-08-16T05:11:46.581Z,94.70
2017-08-16T05:14:14.136Z,94.60
2017-08-16T05:16:41.745Z,94.70
2017-08-16T05:19:09.368Z,94.60
2017-08-16T05:21:36.930Z,94.50
2017-08-16T05:24:04.512Z,94.40
2017-08-16T05:26:32.223Z,94.50
2017-08-16T05:29:00.571Z,94.40
2017-08-16T05:31:28.173Z,94.40
2017-08-16T05:33:55.751Z,94.40
2017-08-16T05:36:23.374Z,94.30
2017-08-16T05:38:51.701Z,94.40
2017-08-16T05:41:19.340Z,94.40
2017-08-16T05:43:46.918Z,94.60
2017-08-16T05:46:14.496Z,94.60
2017-08-16T05:48:42.087Z,94.60
2017-08-16T05:51:09.657Z,94.60
2017-08-16T05:53:38.008Z,94.80
2017-08-16T05:56:05.576Z,94.80
2017-08-16T05:58:33.164Z,94.70
2017-08-16T06:01:00.747Z,94.60
2017-08-16T06:03:28.337Z,94.30
2017-08-16T06:05:55.899Z,93.80
2017-08-16T06:08:23.491Z,93.90
2017-08-16T06:10:51.870Z,94.80
2017-08-16T06:13:19.427Z,94.80
2017-08-16T06:15:47.779Z,95.30
2017-08-16T06:18:15.363Z,95.20
2017-08-16T06:20:42.928Z,95.00
2017-08-16T06:23:11.284Z,94.90
2017-08-16T06:25:38.846Z,94.40
2017-08-16T06:28:06.440Z,94.20
2017-08-16T06:30:34.002Z,94.00
2017-08-16T06:33:01.571Z,93.70
2017-08-16T06:35:29.165Z,93.30
2017-08-16T06:37:56.722Z,92.90
2017-08-16T06:40:24.315Z,92.00
2017-08-16T06:42:51.878Z,91.20
2017-08-16T06:45:19.485Z,91.00
2017-08-16T06:47:47.048Z,90.30
2017-08-16T06:50:14.610Z,90.60
2017-08-16T06:52:42.204Z,90.10
2017-08-16T06:55:09.796Z,90.00
2017-08-16T06:57:37.389Z,90.00
2017-08-16T07:00:04.997Z,88.70
2017-08-16T07:02:32.565Z,88.70
2017-08-16T07:05:00.122Z,90.20
2017-08-16T07:07:27.716Z,89.20
2017-08-16T07:09:55.284Z,87.60
2017-08-16T07:12:22.872Z,88.00
2017-08-16T07:14:50.480Z,87.80
2017-08-16T07:17:18.042Z,88.00
2017-08-16T07:19:45.610Z,87.10
2017-08-16T07:22:13.963Z,85.90
2017-08-16T07:24:41.533Z,85.90
2017-08-16T07:27:09.132Z,84.20
2017-08-16T07:29:36.713Z,84.80
2017-08-16T07:32:04.304Z,85.40
2017-08-16T07:34:31.867Z,84.30
2017-08-16T07:37:00.240Z,84.80
2017-08-16T07:39:27.803Z,84.00
2017-08-16T07:41:55.516Z,83.10
2017-08-16T07:44:23.110Z,82.40
2017-08-16T07:46:50.707Z,81.40
2017-08-16T07:49:19.034Z,81.20
2017-08-16T07:51:46.644Z,81.20
2017-08-16T07:54:14.200Z,82.20
2017-08-16T07:56:41.763Z,79.50
2017-08-16T07:59:10.120Z,81.20
2017-08-16T08:01:37.699Z,81.10
2017-08-16T08:04:05.306Z,79.80
2017-08-16T08:06:32.874Z,79.90
2017-08-16T08:09:00.431Z,80.70
2017-08-16T08:11:28.025Z,80.70
2017-08-16T08:13:55.588Z,80.30
2017-08-16T08:16:23.181Z,80.40
2017-08-16T08:18:50.777Z,80.70
2017-08-16T08:21:18.336Z,81.30
2017-08-16T08:23:45.929Z,81.30
2017-08-16T08:26:13.527Z,79.50
2017-08-16T08:28:41.084Z,80.80
2017-08-16T08:31:08.693Z,77.40
2017-08-16T08:33:36.256Z,76.80
2017-08-16T08:36:03.818Z,79.20
2017-08-16T08:38:31.412Z,79.70
2017-08-16T08:40:58.980Z,79.00
2017-08-16T08:43:26.575Z,77.00
2017-08-16T08:45:54.129Z,77.50
2017-08-16T08:48:21.722Z,77.30
2017-08-16T08:50:49.285Z,76.00
2017-08-16T08:53:16.879Z,76.10
2017-08-16T08:55:44.470Z,79.10
2017-08-16T08:58:12.039Z,78.90
2017-08-16T09:00:39.643Z,78.40
2017-08-16T09:03:07.205Z,76.30
2017-08-16T09:05:35.522Z,76.50
2017-08-16T09:08:03.111Z,76.50
2017-08-16T09:10:30.673Z,76.70
2017-08-16T09:12:58.286Z,76.20
2017-08-16T09:15:26.146Z,75.60
2017-08-16T09:17:53.711Z,76.30
2017-08-16T09:20:21.299Z,74.50
2017-08-16T09:22:48.850Z,73.30
2017-08-16T09:25:16.457Z,74.20
2017-08-16T09:27:44.017Z,73.80
2017-08-16T09:30:12.347Z,75.70
2017-08-16T09:32:39.954Z,75.70
2017-08-16T09:35:07.517Z,75.70
2017-08-16T09:37:35.079Z,73.00
2017-08-16T09:40:03.445Z,73.10
2017-08-16T09:42:31.001Z,73.00
2017-08-16T09:44:58.562Z,74.70
2017-08-16T09:47:26.156Z,75.90
2017-08-16T09:49:53.747Z,76.20
2017-08-16T09:52:21.342Z,75.70
2017-08-16T09:54:48.904Z,73.60
2017-08-16T09:57:16.467Z,73.00
2017-08-16T09:59:44.061Z,71.70
2017-08-16T10:02:11.629Z,70.50
2017-08-16T10:04:39.786Z,70.40
2017-08-16T10:07:08.113Z,70.60
2017-08-16T10:09:35.707Z,70.50
2017-08-16T10:12:03.299Z,70.60
2017-08-16T10:14:30.892Z,70.10
2017-08-16T10:16:58.561Z,70.70
2017-08-16T10:19:26.183Z,73.30
2017-08-16T10:21:53.746Z,72.00
2017-08-16T10:24:21.343Z,71.50
2017-08-16T10:26:48.902Z,72.80
2017-08-16T10:29:16.494Z,75.00
2017-08-16T10:31:44.057Z,72.60
2017-08-16T10:34:12.430Z,71.90
2017-08-16T10:36:39.992Z,71.50
2017-08-16T10:39:07.555Z,71.80
2017-08-16T10:41:35.919Z,72.50
2017-08-16T10:44:03.475Z,72.00
2017-08-16T10:46:31.054Z,68.20
2017-08-16T10:48:58.677Z,67.90
2017-08-16T10:51:26.239Z,67.10
2017-08-16T10:53:53.792Z,70.00
2017-08-16T10:56:21.381Z,70.80
2017-08-16T10:58:48.973Z,69.00
2017-08-16T11:01:16.555Z,70.00
2017-08-16T11:03:44.941Z,70.20
2017-08-16T11:06:12.486Z,67.90
2017-08-16T11:08:40.080Z,67.00
2017-08-16T11:11:07.672Z,69.10
2017-08-16T11:13:35.266Z,67.80
2017-08-16T11:16:03.090Z,67.10
2017-08-16T11:18:31.425Z,65.60
2017-08-16T11:20:59.934Z,65.60
2017-08-16T11:23:27.496Z,66.10
2017-08-16T11:25:55.046Z,63.80
2017-08-16T11:28:22.637Z,63.20
2017-08-16T11:30:50.201Z,63.50
2017-08-16T11:33:17.794Z,64.40
2017-08-16T11:35:45.356Z,64.70
2017-08-16T11:38:12.950Z,64.20
2017-08-16T11:40:40.542Z,61.40
2017-08-16T11:43:08.104Z,60.70
2017-08-16T11:45:35.698Z,62.70
2017-08-16T11:48:03.246Z,61.30
2017-08-16T11:50:30.794Z,61.50
2017-08-16T11:52:59.152Z,59.90
2017-08-16T11:55:26.715Z,59.90
2017-08-16T11:57:54.306Z,60.00
2017-08-16T12:00:21.869Z,60.80
2017-08-16T12:02:49.418Z,60.80
2017-08-16T12:05:17.010Z,60.70
2017-08-16T12:07:44.559Z,60.90
2017-08-16T12:10:12.142Z,62.80
2017-08-16T12:12:39.760Z,61.70
2017-08-16T12:15:07.347Z,61.40
2017-08-16T12:17:34.915Z,63.40
2017-08-16T12:20:02.508Z,63.20
2017-08-16T12:22:30.101Z,62.70
2017-08-16T12:24:57.662Z,62.90
2017-08-16T12:27:25.227Z,60.70
2017-08-16T12:29:52.821Z,61.40
2017-08-16T12:32:20.389Z,61.30
2017-08-16T12:34:48.036Z,59.80
2017-08-16T12:37:15.614Z,60.30
2017-08-16T12:39:43.175Z,59.70
2017-08-16T12:42:10.768Z,59.00
2017-08-16T12:44:39.112Z,60.30
2017-08-16T12:47:06.704Z,60.30
2017-08-16T12:49:35.025Z,59.90
2017-08-16T12:52:02.614Z,60.50
2017-08-16T12:54:30.158Z,59.00
2017-08-16T12:56:57.720Z,59.90
2017-08-16T12:59:25.298Z,58.60
2017-08-16T13:01:52.845Z,59.10
2017-08-16T13:04:20.439Z,60.00
2017-08-16T13:06:48.002Z,59.50
2017-08-16T13:09:16.360Z,60.20
2017-08-16T13:11:44.718Z,62.00
2017-08-16T13:14:12.312Z,61.90
2017-08-16T13:16:39.904Z,63.90
2017-08-16T13:19:07.446Z,62.10
2017-08-16T13:21:35.795Z,60.70
2017-08-16T13:24:03.347Z,61.40
2017-08-16T13:26:30.938Z,59.80
2017-08-16T13:28:59.262Z,61.90
2017-08-16T13:31:26.861Z,61.80
2017-08-16T13:33:54.418Z,60.10
2017-08-16T13:36:22.012Z,59.40
2017-08-16T13:38:50.323Z,60.50
2017-08-16T13:41:17.910Z,60.30
2017-08-16T13:43:45.497Z,62.00
2017-08-16T13:46:13.826Z,65.70
2017-08-16T13:48:41.416Z,65.60
2017-08-16T13:51:08.978Z,65.60
2017-08-16T13:53:36.586Z,65.90
2017-08-16T13:56:04.899Z,65.80
2017-08-16T13:58:32.468Z,67.00
2017-08-16T14:01:00.055Z,67.40
2017-08-16T14:03:28.382Z,67.90
2017-08-16T14:05:55.960Z,67.90
2017-08-16T14:08:23.517Z,66.40
2017-08-16T14:10:51.101Z,67.30
2017-08-16T14:13:18.671Z,68.00
2017-08-16T14:15:47.022Z,68.20
2017-08-16T14:18:15.353Z,68.10
2017-08-16T14:20:42.942Z,67.00
2017-08-16T14:23:10.507Z,68.00
2017-08-16T14:25:38.674Z,68.20
2017-08-16T14:28:06.712Z,66.70
2017-08-16T14:30:34.304Z,67.10
2017-08-16T14:33:01.866Z,68.10
2017-08-16T14:35:29.460Z,67.30
2017-08-16T14:37:57.023Z,65.10
2017-08-16T14:40:25.502Z,64.60
2017-08-16T14:42:53.066Z,65.90
2017-08-16T14:45:20.656Z,67.30
2017-08-16T14:47:48.220Z,65.30
2017-08-16T14:50:15.812Z,65.60
2017-08-16T14:52:43.365Z,67.20
2017-08-16T14:55:10.953Z,66.40
2017-08-16T14:57:38.576Z,64.40
2017-08-16T15:00:06.154Z,64.30
2017-08-16T15:02:34.662Z,63.50
2017-08-16T15:05:02.254Z,65.00
2017-08-16T15:07:29.803Z,64.70
2017-08-16T15:09:58.160Z,65.90
2017-08-16T15:12:25.723Z,65.90
2017-08-16T15:14:53.315Z,65.30
2017-08-16T15:17:20.878Z,64.00
2017-08-16T15:19:48.471Z,64.10
2017-08-16T15:22:16.034Z,63.80
2017-08-16T15:24:44.394Z,64.20
2017-08-16T15:27:12.044Z,65.40
2017-08-16T15:29:39.593Z,67.00
2017-08-16T15:32:07.171Z,66.50
2017-08-16T15:34:34.758Z,66.10
2017-08-16T15:37:02.312Z,66.40
2017-08-16T15:39:29.938Z,67.60
2017-08-16T15:41:57.482Z,67.60
2017-08-16T15:44:25.809Z,67.30
2017-08-16T15:46:57.588Z,67.30
2017-08-16T15:49:25.150Z,69.20
2017-08-16T15:51:52.729Z,70.00
2017-08-16T15:54:21.838Z,69.10
2017-08-16T15:56:50.165Z,69.70
2017-08-16T15:59:17.713Z,69.70
2017-08-16T16:01:45.311Z,68.90
2017-08-16T16:04:13.770Z,69.00
2017-08-16T16:06:41.362Z,68.50
2017-08-16T16:09:08.954Z,69.00
2017-08-16T16:11:36.577Z,69.50
2017-08-16T16:14:05.069Z,69.80
2017-08-16T16:16:33.158Z,71.20
2017-08-16T16:19:04.464Z,70.20
2017-08-16T16:21:32.048Z,70.20
2017-08-16T16:24:04.233Z,69.70
2017-08-16T16:26:32.966Z,68.60
2017-08-16T16:29:00.579Z,69.80
2017-08-16T16:31:28.266Z,70.20
2017-08-16T16:33:55.850Z,69.30
2017-08-16T16:36:24.241Z,70.00
2017-08-16T16:38:51.832Z,69.10
2017-08-16T16:41:20.160Z,67.90
2017-08-16T16:43:47.722Z,67.80
2017-08-16T16:46:15.315Z,68.00
2017-08-16T16:48:42.881Z,68.00
2017-08-16T16:51:11.356Z,68.40
2017-08-16T16:53:38.918Z,68.80
2017-08-16T16:56:06.481Z,68.30
2017-08-16T16:58:34.089Z,68.00
2017-08-16T17:01:01.651Z,69.10
2017-08-16T17:03:29.995Z,69.60
2017-08-16T17:06:00.566Z,71.20
2017-08-16T17:08:28.721Z,71.10
2017-08-16T17:10:56.529Z,71.60
2017-08-16T17:13:26.383Z,71.00
2017-08-16T17:15:55.205Z,70.40
2017-08-16T17:18:23.615Z,70.40
2017-08-16T17:20:51.175Z,70.90
2017-08-16T17:23:18.771Z,71.40
2017-08-16T17:25:47.093Z,71.40
2017-08-16T17:28:15.541Z,71.40
2017-08-16T17:30:43.132Z,70.80
2017-08-16T17:33:10.726Z,70.60
2017-08-16T17:35:38.355Z,71.80
2017-08-16T17:38:05.924Z,70.70
2017-08-16T17:40:33.505Z,70.70
2017-08-16T17:43:01.113Z,70.40
2017-08-16T17:45:28.681Z,70.40
2017-08-16T17:47:56.240Z,70.40
2017-08-16T17:50:24.061Z,69.70
2017-08-16T17:52:52.451Z,69.60
2017-08-16T17:55:21.830Z,72.40
2017-08-16T17:57:50.391Z,71.10
2017-08-16T18:00:17.940Z,69.70
2017-08-16T18:02:45.548Z,69.50
2017-08-16T18:05:13.110Z,69.40
2017-08-16T18:07:40.704Z,70.30
2017-08-16T18:10:08.733Z,71.70
2017-08-16T18:12:36.324Z,72.50
2017-08-16T18:15:03.922Z,72.70
2017-08-16T18:17:31.481Z,73.50
2017-08-16T18:19:59.928Z,74.50
2017-08-16T18:22:27.476Z,75.00
2017-08-16T18:24:55.834Z,75.80
2017-08-16T18:27:23.501Z,75.90
2017-08-16T18:29:53.239Z,76.40
2017-08-16T18:32:24.469Z,76.40
2017-08-16T18:34:53.519Z,76.70
2017-08-16T18:37:21.906Z,77.40
2017-08-16T18:39:49.654Z,78.00
2017-08-16T18:42:17.211Z,78.30
2017-08-16T18:44:56.739Z,80.70
2017-08-16T18:47:26.241Z,82.70
2017-08-16T18:49:53.844Z,83.70
2017-08-16T18:52:22.247Z,84.20
2017-08-16T18:54:50.697Z,84.10
2017-08-16T18:57:18.416Z,84.50
2017-08-16T18:59:46.005Z,86.10
2017-08-16T19:02:14.849Z,86.60
2017-08-16T19:04:43.180Z,87.30
2017-08-16T19:07:12.138Z,87.30
2017-08-16T19:09:40.449Z,87.30
2017-08-16T19:12:08.842Z,87.60
2017-08-16T19:14:36.922Z,87.70
2017-08-16T19:17:04.544Z,87.60
2017-08-16T19:19:34.570Z,87.60
2017-08-16T19:22:04.427Z,88.00
2017-08-16T19:24:34.158Z,88.20
2017-08-16T19:27:03.189Z,88.60
2017-08-16T19:29:31.173Z,88.50
2017-08-16T19:31:58.837Z,88.70
2017-08-16T19:34:28.109Z,89.10
2017-08-16T19:36:56.033Z,89.30
2017-08-16T19:39:24.428Z,89.70
2017-08-16T19:41:53.548Z,89.70
2017-08-16T19:44:21.119Z,89.70
2017-08-16T19:46:50.217Z,89.90
2017-08-16T19:49:17.973Z,90.00
2017-08-16T19:51:45.586Z,90.20
2017-08-16T19:54:13.256Z,90.60
2017-08-16T19:56:41.581Z,90.80
2017-08-16T19:59:09.156Z,90.80
2017-08-16T20:01:37.572Z,90.70
2017-08-16T20:04:05.953Z,90.80
2017-08-16T20:06:35.448Z,91.10
2017-08-16T20:09:03.100Z,91.00
2017-08-16T20:11:30.784Z,91.00
2017-08-16T20:13:59.688Z,90.80
2017-08-16T20:16:28.041Z,90.80
2017-08-16T20:18:56.249Z,90.90
2017-08-16T20:21:23.814Z,91.00
2017-08-16T20:23:52.507Z,91.00
2017-08-16T20:26:20.109Z,91.10
2017-08-16T20:28:47.687Z,91.10
2017-08-16T20:31:15.895Z,90.60
2017-08-16T20:33:43.473Z,90.10
2017-08-16T20:36:11.086Z,90.40
2017-08-16T20:38:38.674Z,91.00
2017-08-16T20:41:06.603Z,91.10
2017-08-16T20:43:34.297Z,91.20
2017-08-16T20:46:01.919Z,91.30
2017-08-16T20:48:31.553Z,91.50
2017-08-16T20:50:59.842Z,91.50
2017-08-16T20:53:27.413Z,91.50
2017-08-16T20:55:55.616Z,91.70
2017-08-16T20:58:25.153Z,91.90
2017-08-16T21:00:52.771Z,92.10
2017-08-16T21:03:20.669Z,92.30
2017-08-16T21:05:48.259Z,92.60
2017-08-16T21:08:15.851Z,92.30
2017-08-16T21:10:43.437Z,92.00
2017-08-16T21:13:10.996Z,91.60
2017-08-16T21:15:38.584Z,91.50
2017-08-16T21:18:06.177Z,91.60
2017-08-16T21:20:33.769Z,92.20
2017-08-16T21:23:01.918Z,92.50
2017-08-16T21:25:29.517Z,92.80
2017-08-16T21:27:57.074Z,92.80
2017-08-16T21:30:24.667Z,93.00
2017-08-16T21:32:53.038Z,93.20
2017-08-16T21:35:21.548Z,93.30
2017-08-16T21:37:49.109Z,93.60
2017-08-16T21:40:16.722Z,93.00
2017-08-16T21:42:44.280Z,93.00
2017-08-16T21:45:11.856Z,92.80
2017-08-16T21:47:39.470Z,92.80
2017-08-16T21:50:07.029Z,92.80
2017-08-16T21:52:34.622Z,92.60
2017-08-16T21:55:02.220Z,92.70
2017-08-16T21:57:29.777Z,92.70
2017-08-16T21:59:59.157Z,92.70
2017-08-16T22:02:27.515Z,92.60
2017-08-16T22:04:55.128Z,92.60
2017-08-16T22:07:23.455Z,92.50
2017-08-16T22:09:51.013Z,92.40
2017-08-16T22:12:18.611Z,92.50
2017-08-16T22:14:46.514Z,92.50
2017-08-16T22:17:14.106Z,92.50
2017-08-16T22:19:41.695Z,92.30
2017-08-16T22:22:09.292Z,92.20
2017-08-16T22:24:36.855Z,92.20
2017-08-16T22:27:04.967Z,92.40
2017-08-16T22:29:33.360Z,92.60
2017-08-16T22:32:00.924Z,92.60
2017-08-16T22:34:28.517Z,92.80
2017-08-16T22:36:57.776Z,93.30
2017-08-16T22:39:25.382Z,93.50
2017-08-16T22:41:52.945Z,93.60
2017-08-16T22:44:20.507Z,93.50
2017-08-16T22:46:48.105Z,93.60
2017-08-16T22:49:15.663Z,93.70
2017-08-16T22:51:43.259Z,93.80
2017-08-16T22:54:11.584Z,94.00
2017-08-16T22:56:39.149Z,94.00
2017-08-16T22:59:06.741Z,93.90
2017-08-16T23:01:34.304Z,93.60
2017-08-16T23:04:01.898Z,93.50
2017-08-16T23:06:29.459Z,93.50
2017-08-16T23:08:57.051Z,93.50
2017-08-16T23:11:24.635Z,93.70
2017-08-16T23:13:52.192Z,93.50
2017-08-16T23:16:19.786Z,93.50
2017-08-16T23:18:47.348Z,93.20
2017-08-16T23:21:14.948Z,93.30
2017-08-16T23:23:42.505Z,93.00
2017-08-16T23:26:10.096Z,93.30
2017-08-16T23:34:34.778Z,93.60
2017-08-16T23:37:02.313Z,93.60
2017-08-16T23:39:29.886Z,93.70
2017-08-16T23:41:57.425Z,93.80
2017-08-16T23:44:25.015Z,93.80
2017-08-16T23:46:52.583Z,93.70
2017-08-16T23:49:20.161Z,93.70
2017-08-16T23:51:47.710Z,93.90
2017-08-16T23:54:15.290Z,93.90
2017-08-16T23:56:43.606Z,93.70
2017-08-16T23:59:11.146Z,93.70
